Time;durP1;ratioP1;P1;durP2;ratioP2;P2;SDS_P1;SDS_P2;PMS_P1;PMS_P2;Temp;Humidity;BMP_temperature;BMP_pressure;BME280_temperature;BME280_humidity;BME280_pressure;Samples;Min_cycle;Max_cycle;Signal;HPM_P1;HPM_P2
2022/09/03 05:59:44;;;;;;;3.23;1.90;;;;;;;;;;10544711;28;20374;-81
2022/09/03 06:04:45;;;;;;;5.22;2.60;;;;;;;;;;10530215;28;20070;-82
2022/09/03 06:09:46;;;;;;;2.50;1.95;;;;;;;;;;10523965;28;20088;-82
2022/09/03 06:14:47;;;;;;;2.58;1.73;;;;;;;;;;10523486;28;20031;-82
2022/09/03 06:19:48;;;;;;;3.15;1.48;;;;;;;;;;10523395;28;20040;-80
2022/09/03 06:24:50;;;;;;;2.33;1.65;;;;;;;;;;10528126;28;20490;-80
2022/09/03 06:29:51;;;;;;;4.35;1.58;;;;;;;;;;10535643;28;20034;-79
2022/09/03 06:34:52;;;;;;;2.05;1.63;;;;;;;;;;10536163;28;20051;-80
2022/09/03 06:39:53;;;;;;;3.53;1.60;;;;;;;;;;10534510;28;20024;-79
2022/09/03 06:44:56;;;;;;;4.38;2.00;;;;;;;;;;10538265;28;20028;-79
2022/09/03 06:49:59;;;;;;;1.88;1.48;;;;;;;;;;10543723;28;20028;-80
2022/09/03 06:55:00;;;;;;;5.15;1.80;;;;;;;;;;10543989;28;20035;-80
2022/09/03 07:00:01;;;;;;;2.65;1.40;;;;;;;;;;10565691;28;20031;-81
2022/09/03 07:05:02;;;;;;;2.88;1.20;;;;;;;;;;10534189;28;20037;-80
2022/09/03 07:10:06;;;;;;;2.33;1.50;;;;;;;;;;10509476;28;20032;-81
2022/09/03 07:15:11;;;;;;;1.80;1.20;;;;;;;;;;10494661;28;20091;-86
2022/09/03 07:20:12;;;;;;;2.60;1.10;;;;;;;;;;10491214;28;20028;-85
2022/09/03 07:25:16;;;;;;;4.00;1.70;;;;;;;;;;10516298;22;20052;-83
2022/09/03 07:30:26;;;;;;;3.92;1.85;;;;;;;;;;10422667;28;20022;-82
2022/09/03 07:35:27;;;;;;;2.05;1.50;;;;;;;;;;10405244;28;20065;-83
2022/09/03 07:40:28;;;;;;;5.32;1.90;;;;;;;;;;10384032;28;20045;-83
2022/09/03 07:45:38;;;;;;;2.37;1.43;;;;;;;;;;10399032;28;20411;-83
2022/09/03 07:50:43;;;;;;;2.97;1.50;;;;;;;;;;10402059;28;20086;-83
2022/09/03 07:55:47;;;;;;;3.80;1.75;;;;;;;;;;10376490;28;20134;-85
2022/09/03 08:00:57;;;;;;;2.72;1.35;;;;;;;;;;10354746;28;20042;-82
2022/09/03 08:06:05;;;;;;;2.38;1.40;;;;;;;;;;10371009;28;20022;-82
2022/09/03 08:11:11;;;;;;;4.60;1.40;;;;;;;;;;10375291;28;20030;-83
2022/09/03 08:16:13;;;;;;;3.70;2.53;;;;;;;;;;10370483;28;20068;-82
2022/09/03 08:21:17;;;;;;;1.95;1.50;;;;;;;;;;10372394;28;20120;-84
2022/09/03 08:26:19;;;;;;;2.63;1.50;;;;;;;;;;10374957;28;20041;-84
2022/09/03 08:31:26;;;;;;;2.75;1.42;;;;;;;;;;10378893;28;20041;-83
2022/09/03 08:36:29;;;;;;;44.30;36.05;;;;;;;;;;10379034;28;20113;-83
2022/09/03 08:41:36;;;;;;;3.58;1.70;;;;;;;;;;10374318;28;20480;-84
2022/09/03 08:46:50;;;;;;;3.35;2.10;;;;;;;;;;10376079;28;20064;-83
2022/09/03 08:51:53;;;;;;;3.47;1.95;;;;;;;;;;10382509;28;20058;-84
2022/09/03 08:56:55;;;;;;;3.45;1.80;;;;;;;;;;10375770;28;20026;-84
2022/09/03 09:02:05;;;;;;;2.97;1.80;;;;;;;;;;10376984;28;20029;-84
2022/09/03 09:07:09;;;;;;;6.00;1.70;;;;;;;;;;10378335;28;20121;-83
2022/09/03 09:12:21;;;;;;;5.55;1.77;;;;;;;;;;10375284;28;20033;-84
2022/09/03 09:17:41;;;;;;;4.05;1.75;;;;;;;;;;10375208;28;20396;-83
2022/09/03 09:22:42;;;;;;;;;;;;;;;;;;10394341;28;20081;-83
2022/09/03 09:27:50;;;;;;;2.40;1.58;;;;;;;;;;10373496;28;19914;-83
2022/09/03 09:32:51;;;;;;;1.60;1.15;;;;;;;;;;10372659;28;20044;-82
2022/09/03 09:37:54;;;;;;;28.52;23.20;;;;;;;;;;10372872;28;20054;-83
2022/09/03 09:43:15;;;;;;;5.85;1.70;;;;;;;;;;10370749;28;20049;-83
2022/09/03 09:48:30;;;;;;;5.00;2.10;;;;;;;;;;10386704;28;20404;-83
2022/09/03 09:53:31;;;;;;;4.70;1.70;;;;;;;;;;10388542;28;20076;-83
2022/09/03 09:58:33;;;;;;;3.42;2.22;;;;;;;;;;10387503;28;20124;-83
2022/09/03 10:03:34;;;;;;;2.95;1.52;;;;;;;;;;10371278;28;20034;-82
2022/09/03 10:08:35;;;;;;;2.00;1.70;;;;;;;;;;10372544;28;20026;-83
2022/09/03 10:13:43;;;;;;;3.28;1.90;;;;;;;;;;10377070;28;20018;-83
2022/09/03 10:18:49;;;;;;;4.15;2.28;;;;;;;;;;10361268;28;20116;-83
2022/09/03 10:23:55;;;;;;;2.53;1.40;;;;;;;;;;10380594;28;20101;-82
2022/09/03 10:28:57;;;;;;;4.95;3.30;;;;;;;;;;10377744;28;20107;-81
2022/09/03 10:34:12;;;;;;;4.55;2.78;;;;;;;;;;10378196;28;20037;-82
2022/09/03 10:39:36;;;;;;;6.95;2.17;;;;;;;;;;10389325;28;20037;-82
2022/09/03 10:44:48;;;;;;;6.85;5.70;;;;;;;;;;10356597;28;20040;-82
2022/09/03 10:50:09;;;;;;;4.38;1.85;;;;;;;;;;10369731;28;20030;-82
2022/09/03 10:55:17;;;;;;;4.95;1.73;;;;;;;;;;10386108;28;20022;-83
2022/09/03 11:00:19;;;;;;;2.83;1.70;;;;;;;;;;10386893;28;20089;-83
2022/09/03 11:05:39;;;;;;;3.35;1.60;;;;;;;;;;10386180;28;20098;-83
2022/09/03 11:11:20;;;;;;;2.25;1.65;;;;;;;;;;10367784;28;20057;-82
2022/09/03 11:16:34;;;;;;;3.83;2.67;;;;;;;;;;10401006;28;20547;-83
2022/09/03 11:22:14;;;;;;;6.68;4.40;;;;;;;;;;10381012;28;20133;-84
2022/09/03 11:27:39;;;;;;;4.03;2.28;;;;;;;;;;10402716;28;20045;-84
2022/09/03 11:33:15;;;;;;;3.75;1.92;;;;;;;;;;10380414;28;20099;-83
2022/09/03 11:38:43;;;;;;;2.33;1.90;;;;;;;;;;10413896;28;20081;-85
2022/09/03 11:43:51;;;;;;;3.88;1.85;;;;;;;;;;10423988;28;20022;-83
